Time;durP1;ratioP1;P1;durP2;ratioP2;P2;SDS_P1;SDS_P2;PMS_P1;PMS_P2;Temp;Humidity;BMP_temperature;BMP_pressure;BME280_temperature;BME280_humidity;BME280_pressure;Samples;Min_cycle;Max_cycle;Signal;HPM_P1;HPM_P2
2023/08/21 00:01:01;;;;;;;;;;;;;;;32.01;44.68;100255.25;4484342;32;34981;-78
2023/08/21 00:03:29;;;;;;;;;;;;;;;32.18;44.33;100250.19;4468784;32;33447;-80
2023/08/21 00:05:57;;;;;;;;;;;;;;;32.15;44.35;100257.47;4483293;32;34941;-79
2023/08/21 00:08:24;;;;;;;;;;;;;;;31.93;44.83;100259.09;4484580;32;33382;-80
2023/08/21 00:10:52;;;;;;;;;;;;;;;31.88;45.08;100261.06;4484451;32;33432;-78
2023/08/21 00:13:19;;;;;;;;;;;;;;;31.45;46.02;100261.69;4484047;32;35063;-80
2023/08/21 00:15:46;;;;;;;;;;;;;;;31.26;46.43;100261.44;4483521;32;34659;-79
2023/08/21 00:18:14;;;;;;;;;;;;;;;31.15;46.51;100265.31;4484350;32;34173;-78
2023/08/21 00:20:42;;;;;;;;;;;;;;;31.29;46.16;100262.19;4484246;32;34447;-80
2023/08/21 00:23:09;;;;;;;;;;;;;;;31.29;46.15;100266.66;4483488;32;34902;-78
2023/08/21 00:25:37;;;;;;;;;;;;;;;31.08;46.43;100263.78;4483614;32;34032;-80
2023/08/21 00:28:05;;;;;;;;;;;;;;;31.02;46.56;100265.75;4483451;32;33957;-80
2023/08/21 00:30:32;;;;;;;;;;;;;;;31.03;46.55;100265.72;4483614;32;33668;-80
2023/08/21 00:33:00;;;;;;;;;;;;;;;31.03;46.63;100262.19;4483609;32;34028;-78
2023/08/21 00:35:27;;;;;;;;;;;;;;;30.75;47.17;100266.56;4472966;32;34948;-80
2023/08/21 00:37:55;;;;;;;;;;;;;;;31.06;46.46;100265.62;4481507;32;33515;-79
2023/08/21 00:40:22;;;;;;;;;;;;;;;30.71;47.18;100264.03;4483074;32;34196;-80
2023/08/21 00:42:49;;;;;;;;;;;;;;;30.70;47.27;100268.50;4483239;32;34200;-79
2023/08/21 00:45:17;;;;;;;;;;;;;;;30.64;47.32;100267.84;4483201;32;34433;-78
2023/08/21 00:47:44;;;;;;;;;;;;;;;30.89;46.77;100273.28;4457785;32;31636;-80
2023/08/21 00:50:11;;;;;;;;;;;;;;;30.97;46.88;100281.97;4468963;32;33885;-80
2023/08/21 00:52:39;;;;;;;;;;;;;;;31.13;46.38;100272.50;4483130;32;33926;-80
2023/08/21 00:55:07;;;;;;;;;;;;;;;30.90;46.95;100272.38;4482892;32;34552;-80
2023/08/21 00:57:35;;;;;;;;;;;;;;;30.97;46.60;100271.28;4470942;32;33696;-78
2023/08/21 01:00:04;;;;;;;;;;;;;;;31.06;46.41;100275.44;4460832;32;33912;-79
2023/08/21 01:02:31;;;;;;;;;;;;;;;30.47;47.62;100271.00;4479535;32;33597;-80
2023/08/21 01:04:59;;;;;;;;;;;;;;;31.14;46.08;100273.41;4481271;32;33002;-79
2023/08/21 01:07:26;;;;;;;;;;;;;;;30.81;46.76;100269.97;4471077;32;33308;-79
2023/08/21 01:09:59;;;;;;;;;;;;;;;30.73;46.88;100273.78;4453359;32;32624;-79
2023/08/21 01:12:30;;;;;;;;;;;;;;;30.89;46.57;100273.28;4468119;32;33467;-79
2023/08/21 01:14:58;;;;;;;;;;;;;;;30.75;46.97;100277.28;4461195;32;35007;-80
2023/08/21 01:17:26;;;;;;;;;;;;;;;30.61;47.42;100279.47;4461722;32;33150;-79
2023/08/21 01:19:53;;;;;;;;;;;;;;;30.94;46.78;100276.72;4462152;32;34004;-78
2023/08/21 01:22:25;;;;;;;;;;;;;;;30.79;46.93;100288.75;4462547;32;34855;-79
2023/08/21 01:24:53;;;;;;;;;;;;;;;30.72;47.13;100288.06;4463640;32;33763;-79
2023/08/21 01:27:23;;;;;;;;;;;;;;;30.38;47.88;100283.75;4479918;32;33062;-79
2023/08/21 01:29:51;;;;;;;;;;;;;;;30.53;47.55;100282.38;4483702;32;34811;-79
2023/08/21 01:32:37;;;;;;;;;;;;;;;30.33;48.05;100285.66;4463580;32;33810;-78
2023/08/21 01:35:05;;;;;;;;;;;;;;;30.58;47.44;100290.28;4482020;32;35051;-79
2023/08/21 01:37:33;;;;;;;;;;;;;;;30.41;47.70;100288.09;4480855;32;32952;-79
2023/08/21 01:40:00;;;;;;;;;;;;;;;30.22;48.20;100290.41;4459444;32;34319;-79
2023/08/21 01:42:27;;;;;;;;;;;;;;;30.58;47.15;100290.28;4471220;32;33711;-78
2023/08/21 01:44:55;;;;;;;;;;;;;;;30.49;47.28;100295.91;4470772;32;34922;-78
2023/08/21 01:47:22;;;;;;;;;;;;;;;30.61;46.96;100292.84;4470024;32;32977;-80
2023/08/21 01:49:52;;;;;;;;;;;;;;;30.13;48.07;100301.34;4478731;32;34696;-78
2023/08/21 01:52:19;;;;;;;;;;;;;;;30.05;48.50;100298.88;4473103;32;33584;-80
2023/08/21 01:54:47;;;;;;;;;;;;;;;30.21;48.10;100302.03;4465177;32;34716;-78
2023/08/21 01:57:17;;;;;;;;;;;;;;;30.37;47.69;100307.84;4476671;32;32759;-79
2023/08/21 01:59:44;;;;;;;;;;;;;;;30.08;48.43;100305.94;4476332;32;34043;-79
2023/08/21 02:02:12;;;;;;;;;;;;;;;30.04;48.57;100306.94;4474324;32;34988;-78
2023/08/21 02:04:39;;;;;;;;;;;;;;;30.11;48.31;100312.06;4479121;32;33960;-79
2023/08/21 02:07:07;;;;;;;;;;;;;;;30.09;48.22;100313.03;4461550;32;33144;-79
2023/08/21 02:09:34;;;;;;;;;;;;;;;30.04;48.02;100320.28;4477903;32;34687;-79
2023/08/21 02:12:02;;;;;;;;;;;;;;;30.05;47.96;100311.37;4478687;32;34339;-79
2023/08/21 02:14:29;;;;;;;;;;;;;;;29.95;48.10;100306.28;4475131;32;34726;-80
2023/08/21 02:16:57;;;;;;;;;;;;;;;30.28;47.52;100311.59;4479517;32;33092;-78
2023/08/21 02:19:24;;;;;;;;;;;;;;;30.08;47.86;100309.50;4462387;32;35047;-79
2023/08/21 02:21:51;;;;;;;;;;;;;;;29.81;48.63;100297.78;4478213;32;33750;-77
2023/08/21 02:24:19;;;;;;;;;;;;;;;29.79;48.82;100299.59;4479270;32;34885;-80
2023/08/21 02:26:47;;;;;;;;;;;;;;;30.15;47.93;100302.16;4460150;32;32953;-78
2023/08/21 02:29:14;;;;;;;;;;;;;;;30.35;47.37;100304.31;4473622;32;34276;-79
2023/08/21 02:31:42;;;;;;;;;;;;;;;30.01;48.16;100301.69;4475594;32;34622;-79
2023/08/21 02:34:10;;;;;;;;;;;;;;;29.89;48.46;100300.22;4477916;32;33862;-79
2023/08/21 02:36:37;;;;;;;;;;;;;;;29.89;48.53;100305.56;4477758;32;34147;-78
2023/08/21 02:39:05;;;;;;;;;;;;;;;29.95;48.39;100300.94;4472020;32;34253;-78
2023/08/21 02:41:33;;;;;;;12.30;8.88;;;;;;;29.96;48.57;100292.00;4477685;32;34358;-78
2023/08/21 02:44:00;;;;;;;12.60;10.95;;;;;;;29.91;48.74;100299.25;4478667;32;33485;-79
2023/08/21 02:46:28;;;;;;;15.52;11.23;;;;;;;29.06;51.22;100302.25;4472102;32;33213;-79
2023/08/21 02:48:55;;;;;;;;;;;;;;;28.95;51.69;100300.69;4479897;32;33932;-80
2023/08/21 02:51:23;;;;;;;;;;;;;;;29.41;50.53;100298.75;4476002;32;34975;-78
2023/08/21 02:53:50;;;;;;;;;;;;;;;29.61;49.64;100295.56;4482138;32;34641;-80
2023/08/21 02:56:18;;;;;;;;;;;;;;;29.81;49.34;100300.44;4483875;32;33250;-78
2023/08/21 02:58:45;;;;;;;;;;;;;;;29.76;49.38;100305.00;4474373;32;34020;-78
2023/08/21 03:01:12;;;;;;;;;;;;;;;29.76;49.49;100299.66;4475697;32;34167;-78
2023/08/21 03:03:40;;;;;;;;;;;;;;;29.95;49.19;100295.59;4471579;32;34700;-80
2023/08/21 03:06:07;;;;;;;;;;;;;;;30.36;47.97;100298.03;4481592;32;33319;-78
2023/08/21 03:08:34;;;;;;;;;;;;;;;29.93;48.87;100294.75;4472179;32;34116;-78
2023/08/21 03:11:02;;;;;;;;;;;;;;;30.29;48.09;100300.00;4474760;32;35052;-80
2023/08/21 03:13:29;;;;;;;;;;;;;;;30.49;47.53;100291.41;4480115;32;33920;-79
2023/08/21 03:15:57;;;;;;;;;;;;;;;30.45;47.57;100288.91;4478900;32;33706;-80
2023/08/21 03:18:24;;;;;;;;;;;;;;;30.70;46.95;100287.22;4474267;32;33658;-79
2023/08/21 03:20:51;;;;;;;;;;;;;;;30.32;47.93;100299.94;4483545;32;35544;-78
2023/08/21 03:23:19;;;;;;;;;;;;;;;30.37;47.73;100292.66;4476296;32;35145;-78
2023/08/21 03:25:46;;;;;;;;;;;;;;;30.04;48.67;100299.81;4478222;32;33563;-79
2023/08/21 03:28:13;;;;;;;;;;;;;;;30.05;48.60;100303.34;4476448;32;34178;-79
2023/08/21 03:30:41;;;;;;;;;;;;;;;29.76;49.19;100305.00;4480661;32;34987;-79
2023/08/21 03:33:08;;;;;;;;;;;;;;;29.85;49.27;100304.78;4477950;32;34057;-78
2023/08/21 03:35:36;;;;;;;;;;;;;;;30.06;48.52;100302.44;4483888;32;33457;-78
2023/08/21 03:38:03;;;;;;;;;;;;;;;29.79;49.04;100305.81;4472694;32;34880;-80
2023/08/21 03:40:33;;;;;;;;;;;;;;;29.77;49.02;100301.44;4475147;32;34200;-80
2023/08/21 03:43:00;;;;;;;;;;;;;;;29.76;48.74;100310.34;4478517;32;34006;-78
2023/08/21 03:45:27;;;;;;;;;;;;;;;29.80;48.57;100312.03;4482161;32;33180;-79
2023/08/21 03:47:55;;;;;;;;;;;;;;;29.55;49.13;100307.31;4464499;32;32599;-80
2023/08/21 03:50:22;;;;;;;;;;;;;;;29.65;48.95;100309.72;4475398;32;34649;-79
2023/08/21 03:52:49;;;;;;;;;;;;;;;29.65;48.94;100307.03;4473366;32;33902;-78
2023/08/21 03:55:17;;;;;;;;;;;;;;;29.86;48.10;100311.84;4480801;32;33522;-78
2023/08/21 03:57:44;;;;;;;;;;;;;;;29.60;48.75;100310.72;4483142;32;34658;-79
2023/08/21 04:00:12;;;;;;;;;;;;;;;29.52;48.97;100307.38;4466146;32;34677;-78
2023/08/21 04:02:41;;;;;;;;;;;;;;;29.46;48.95;100311.97;4478621;32;33906;-78
2023/08/21 04:05:10;;;;;;;;;;;;;;;29.21;49.54;100302.78;4463139;32;33585;-79
2023/08/21 04:07:38;;;;;;;;;;;;;;;29.53;48.85;100309.09;4472140;32;34804;-79
2023/08/21 04:10:05;;;;;;;;;;;;;;;29.41;49.35;100309.44;4473533;32;34330;-78
2023/08/21 04:12:33;;;;;;;;;;;;;;;29.40;49.31;100302.34;4477180;32;34247;-80
2023/08/21 04:15:00;;;;;;;;;;;;;;;29.40;49.53;100308.56;4481559;32;33677;-78
2023/08/21 04:17:29;;;;;;;;;;;;;;;29.08;50.33;100311.97;4469974;32;34071;-79
2023/08/21 04:19:56;;;;;;;;;;;;;;;29.54;49.19;100305.53;4483295;32;34769;-80
2023/08/21 04:22:23;;;;;;;;;;;;;;;29.26;49.95;100309.81;4477665;32;35500;-78
2023/08/21 04:24:51;;;;;;;;;;;;;;;29.26;50.12;100312.47;4464323;32;31687;-78
2023/08/21 04:27:18;;;;;;;;;;;;;;;29.17;50.58;100314.47;4473861;32;34150;-79
2023/08/21 04:29:45;;;;;;;;;;;;;;;29.50;49.45;100314.53;4479645;32;34651;-79
2023/08/21 04:32:13;;;;;;;;;;;;;;;29.63;49.25;100328.44;4474500;32;32849;-78
2023/08/21 04:34:41;;;;;;;;;;;;;;;29.50;49.51;100319.88;4477582;32;33451;-79
2023/08/21 04:37:08;;;;;;;;;;;;;;;29.56;49.27;100324.19;4475393;32;34049;-78
2023/08/21 04:39:36;;;;;;;;;;;;;;;29.52;49.29;100318.06;4476934;32;34998;-80
2023/08/21 04:42:04;;;;;;;;;;;;;;;29.42;49.77;100321.87;4467937;32;32720;-79
2023/08/21 04:44:31;;;;;;;;;;;;;;;29.43;49.92;100322.75;4483675;32;33476;-78
2023/08/21 04:46:58;;;;;;;;;;;;;;;29.41;50.00;100320.09;4479749;32;33664;-79
2023/08/21 04:49:26;;;;;;;;;;;;;;;29.98;48.79;100330.25;4463413;32;33728;-78
2023/08/21 04:51:53;;;;;;;;;;;;;;;29.87;49.30;100329.66;4476761;32;34633;-79
2023/08/21 04:54:21;;;;;;;;;;;;;;;30.29;48.63;100332.06;4481216;32;34122;-79
2023/08/21 04:56:48;;;;;;;;;;;;;;;30.23;48.83;100328.69;4475781;32;34810;-78
2023/08/21 04:59:16;;;;;;;;;;;;;;;30.32;48.89;100336.47;4484307;32;32386;-79
2023/08/21 05:01:43;;;;;;;;;;;;;;;29.82;50.25;100331.53;4485422;32;34259;-80
2023/08/21 05:04:12;;;;;;;;;;;;;;;29.73;50.91;100337.16;4485566;32;33064;-79
2023/08/21 05:06:39;;;;;;;;;;;;;;;29.62;51.18;100339.19;4482688;32;33962;-78
2023/08/21 05:09:06;;;;;;;;;;;;;;;29.69;51.18;100340.75;4485748;32;33422;-79
2023/08/21 05:11:34;;;;;;;;;;;;;;;29.72;50.98;100343.34;4476841;32;34871;-79
2023/08/21 05:14:02;;;;;;;;;;;;;;;29.85;50.63;100342.16;4486221;32;33121;-79
2023/08/21 05:16:29;;;;;;;;;;;;;;;29.94;50.47;100339.25;4484613;32;34656;-79
2023/08/21 05:18:57;;;;;;;;;;;;;;;30.13;50.07;100346.75;4485667;32;33557;-79
2023/08/21 05:21:24;;;;;;;;;;;;;;;29.98;50.51;100348.94;4469067;32;33588;-79
2023/08/21 05:23:51;;;;;;;;;;;;;;;29.87;50.92;100340.31;4481552;32;33959;-78
2023/08/21 05:26:19;;;;;;;;;;;;;;;29.84;51.17;100345.72;4482623;32;34285;-79
2023/08/21 05:28:46;;;;;;;;;;;;;;;29.76;51.60;100345.06;4485615;32;34285;-78
2023/08/21 05:31:13;;;;;;;;;;;;;;;29.94;51.09;100347.28;4485439;32;34118;-79
2023/08/21 05:33:42;;;;;;;;;;;;;;;30.04;50.87;100345.22;4482318;32;32859;-80
2023/08/21 05:36:09;;;;;;;;;;;;;;;30.01;51.12;100352.44;4485664;32;34042;-80
2023/08/21 05:38:37;;;;;;;;;;;;;;;30.15;50.89;100350.25;4482691;32;35033;-78
2023/08/21 05:41:05;;;;;;;;;;;;;;;30.32;50.51;100358.72;4484025;32;33992;-78
2023/08/21 05:43:34;;;;;;;;;;;;;;;30.22;50.82;100357.19;4476974;32;31860;-78
2023/08/21 05:46:01;;;;;;;;;;;;;;;30.35;50.56;100364.00;4475254;32;34173;-79
2023/08/21 05:48:29;;;;;;;;;;;;;;;30.30;50.92;100365.87;4474176;32;34285;-78
2023/08/21 05:50:57;;;;;;;;;;;;;;;30.28;51.17;100362.37;4484845;32;34140;-79
2023/08/21 05:53:24;;;;;;;;;;;;;;;30.33;51.46;100368.50;4477123;32;33239;-78
2023/08/21 05:55:53;;;;;;;;;;;;;;;30.45;51.16;100369.94;4481210;32;34191;-80
2023/08/21 05:58:20;;;;;;;;;;;;;;;30.36;51.48;100364.88;4460452;32;34826;-79
2023/08/21 06:00:48;;;;;;;;;;;;;;;30.66;50.97;100378.28;4483544;32;34211;-78
2023/08/21 06:03:15;;;;;;;;;;;;;;;30.59;51.21;100366.88;4481934;32;34113;-78
2023/08/21 06:05:43;;;;;;;;;;;;;;;30.95;50.41;100358.72;4474653;32;34012;-80
2023/08/21 06:08:11;;;;;;;;;;;;;;;30.90;50.34;100368.69;4477971;32;35113;-79
2023/08/21 06:10:38;;;;;;;;;;;;;;;31.01;49.95;100369.25;4476275;32;34850;-79
2023/08/21 06:13:06;;;;;;;;;;;;;;;30.95;50.10;100359.59;4473156;32;34196;-79
2023/08/21 06:15:33;;;;;;;;;;;;;;;31.14;49.69;100365.25;4480444;32;33429;-80
2023/08/21 06:18:01;;;;;;;;;;;;;;;31.29;49.24;100358.56;4484700;32;34001;-79
2023/08/21 06:20:29;;;;;;;;;;;;;;;31.31;49.26;100366.50;4485589;32;33996;-80
2023/08/21 06:22:56;;;;;;;;;;;;;;;31.64;48.46;100369.94;4466778;32;33103;-79
2023/08/21 06:25:23;;;;;;;;;;;;;;;31.53;48.62;100367.62;4476740;32;34013;-80
2023/08/21 06:27:51;;;;;;;;;;;;;;;31.64;48.45;100369.03;4485304;32;32363;-80
2023/08/21 06:30:26;;;;;;;;;;;;;;;32.16;47.31;100367.28;4482285;32;34097;-80
2023/08/21 06:32:54;;;;;;;;;;;;;;;32.11;47.80;100369.28;4480211;32;32703;-80
2023/08/21 06:35:22;;;;;;;;;;;;;;;32.47;46.96;100366.16;4484875;32;33671;-80
2023/08/21 06:37:51;;;;;;;;;;;;;;;32.60;46.54;100372.84;4484476;32;34588;-80
2023/08/21 06:40:18;;;;;;;;;;;;;;;32.77;46.06;100379.41;4481246;32;34510;-80
2023/08/21 06:42:46;;;;;;;;;;;;;;;32.79;46.08;100378.41;4485287;32;33568;-80
2023/08/21 06:45:14;;;;;;;;;;;;;;;32.80;46.21;100376.59;4477435;32;33923;-80
2023/08/21 06:47:41;;;;;;;;;;;;;;;32.89;46.14;100369.06;4465228;32;33569;-78
2023/08/21 06:50:09;;;;;;;;;;;;;;;32.80;46.60;100373.91;4485197;32;33906;-80
2023/08/21 06:52:36;;;;;;;;;;;;;;;32.83;46.53;100372.00;4483994;32;33067;-78
2023/08/21 06:55:04;;;;;;;;;;;;;;;33.01;46.25;100369.53;4475792;32;34790;-79
2023/08/21 06:57:31;;;;;;;;;;;;;;;33.12;46.13;100374.53;4480635;32;34577;-78
2023/08/21 06:59:59;;;;;;;11.57;8.50;;;;;;;33.67;44.45;100373.19;4482877;32;33519;-79
2023/08/21 07:02:28;;;;;;;10.93;8.32;;;;;;;33.34;44.96;100359.31;4484579;32;33159;-78
2023/08/21 07:04:55;;;;;;;10.18;8.23;;;;;;;33.25;45.07;100362.34;4485026;32;33943;-79
2023/08/21 07:07:23;;;;;;;10.13;8.95;;;;;;;33.19;45.31;100370.66;4469037;32;33160;-79
2023/08/21 07:09:51;;;;;;;13.68;9.70;;;;;;;33.42;44.34;100364.38;4472219;32;32185;-79
2023/08/21 07:12:18;;;;;;;11.90;9.05;;;;;;;33.71;43.93;100367.66;4475094;32;32374;-79
2023/08/21 07:14:46;;;;;;;11.57;9.20;;;;;;;33.27;43.37;100368.53;4479636;32;33926;-79
2023/08/21 07:17:14;;;;;;;11.10;9.02;;;;;;;33.97;42.28;100364.72;4474337;32;34679;-79
2023/08/21 07:19:41;;;;;;;11.25;8.98;;;;;;;34.28;42.05;100363.41;4475433;32;34583;-80
2023/08/21 07:22:12;;;;;;;;;;;;;;;34.11;42.66;100361.44;4475333;32;32399;-78
2023/08/21 07:24:39;;;;;;;;;;;;;;;34.49;41.55;100363.41;4481421;32;34026;-79
2023/08/21 07:27:06;;;;;;;13.13;9.10;;;;;;;34.61;40.52;100361.00;4484012;32;34718;-79
2023/08/21 07:29:34;;;;;;;;;;;;;;;34.49;41.27;100356.19;4484927;32;34198;-80
2023/08/21 07:32:01;;;;;;;;;;;;;;;34.59;40.59;100362.03;4484334;32;34171;-79
2023/08/21 07:34:30;;;;;;;;;;;;;;;35.03;40.00;100359.97;4485067;32;34171;-79
2023/08/21 07:37:03;;;;;;;;;;;;;;;35.20;39.73;100361.88;4481756;32;34498;-79
2023/08/21 07:39:30;;;;;;;10.52;8.52;;;;;;;35.37;39.89;100363.75;4480114;32;33958;-79
2023/08/21 07:41:58;;;;;;;11.80;8.35;;;;;;;35.59;39.37;100365.34;4484405;32;33485;-79
2023/08/21 07:44:26;;;;;;;10.68;8.77;;;;;;;36.19;38.18;100363.19;4476715;32;33647;-79
2023/08/21 07:46:54;;;;;;;9.77;8.48;;;;;;;36.30;38.11;100368.03;4482962;32;33833;-79
2023/08/21 07:49:21;;;;;;;11.30;8.65;;;;;;;36.09;38.15;100364.59;4480622;32;32651;-79
2023/08/21 07:51:49;;;;;;;10.25;7.97;;;;;;;36.19;38.29;100363.19;4473571;32;32445;-79
2023/08/21 07:54:16;;;;;;;11.00;8.77;;;;;;;36.95;36.87;100370.81;4482774;32;34564;-79
2023/08/21 07:56:44;;;;;;;10.15;8.45;;;;;;;37.04;36.54;100369.41;4463284;32;33631;-79
2023/08/21 07:59:12;;;;;;;10.85;8.70;;;;;;;37.52;35.77;100364.00;4483604;32;33903;-78
2023/08/21 08:01:39;;;;;;;10.50;8.23;;;;;;;37.70;35.11;100368.34;4484376;32;34317;-79
2023/08/21 08:04:08;;;;;;;9.13;8.13;;;;;;;37.45;35.79;100363.47;4469424;32;33085;-79
2023/08/21 08:06:35;;;;;;;10.52;8.35;;;;;;;37.49;35.69;100364.16;4483173;32;34383;-79
2023/08/21 08:09:03;;;;;;;10.23;8.63;;;;;;;37.63;35.31;100366.97;4490387;31;32557;-79
2023/08/21 08:11:31;;;;;;;12.10;9.07;;;;;;;37.54;35.27;100362.06;4481575;32;33375;-79
2023/08/21 08:13:59;;;;;;;10.25;8.60;;;;;;;38.14;34.85;100372.94;4484267;32;34457;-79
2023/08/21 08:16:26;;;;;;;8.63;7.68;;;;;;;38.24;34.41;100365.09;4482715;32;33464;-79
2023/08/21 08:18:54;;;;;;;10.02;8.23;;;;;;;38.03;34.78;100364.56;4479059;32;33769;-79
2023/08/21 08:21:21;;;;;;;9.25;8.25;;;;;;;38.18;34.47;100364.62;4478313;32;33189;-79
2023/08/21 08:23:49;;;;;;;9.82;8.10;;;;;;;38.71;33.83;100371.22;4477845;32;34632;-79
2023/08/21 08:26:17;;;;;;;9.38;8.13;;;;;;;38.79;33.30;100368.94;4483495;32;33555;-79
2023/08/21 08:28:44;;;;;;;11.10;8.23;;;;;;;38.76;33.11;100368.25;4483934;32;33671;-79
2023/08/21 08:31:16;;;;;;;9.88;7.90;;;;;;;38.93;33.02;100366.19;4464039;32;32603;-79
2023/08/21 08:33:44;;;;;;;9.52;8.52;;;;;;;39.61;31.38;100350.06;4481411;32;33904;-79
2023/08/21 08:36:12;;;;;;;8.73;7.82;;;;;;;39.66;31.46;100364.19;4470841;32;33902;-80
2023/08/21 08:38:40;;;;;;;10.35;8.18;;;;;;;39.72;31.25;100359.19;4479495;32;33933;-79
2023/08/21 08:41:12;;;;;;;10.10;8.27;;;;;;;39.61;31.74;100367.19;4477373;32;32934;-79
2023/08/21 08:43:40;;;;;;;9.50;7.85;;;;;;;40.05;30.36;100360.59;4463185;32;34695;-79
2023/08/21 08:46:09;;;;;;;11.20;8.50;;;;;;;40.26;30.06;100362.78;4483039;32;34715;-79
2023/08/21 08:48:37;;;;;;;9.57;7.95;;;;;;;40.13;30.50;100361.91;4464209;32;34101;-79
2023/08/21 08:51:05;;;;;;;8.95;7.95;;;;;;;40.33;29.80;100364.09;4476795;32;34134;-79
2023/08/21 08:53:33;;;;;;;8.95;7.68;;;;;;;40.39;29.59;100363.69;4483643;32;33859;-79
2023/08/21 08:56:01;;;;;;;10.93;7.93;;;;;;;40.77;28.92;100372.78;4470065;32;33620;-79
2023/08/21 08:58:29;;;;;;;10.90;8.30;;;;;;;40.79;29.42;100371.66;4483444;32;34247;-79
2023/08/21 09:00:56;;;;;;;9.18;7.65;;;;;;;41.00;28.28;100368.38;4476700;32;34150;-79
2023/08/21 09:03:24;;;;;;;11.45;7.95;;;;;;;40.81;29.18;100374.28;4473772;32;34455;-79
2023/08/21 09:05:51;;;;;;;9.57;7.68;;;;;;;41.02;28.65;100372.69;4474923;32;34805;-79
2023/08/21 09:08:19;;;;;;;;;;;;;;;41.05;28.97;100363.47;4482862;32;34013;-79
2023/08/21 09:10:47;;;;;;;11.90;8.13;;;;;;;41.44;27.62;100372.37;4478304;32;33007;-79
2023/08/21 09:13:19;;;;;;;10.73;7.57;;;;;;;41.35;27.86;100373.91;4476145;32;33793;-79
2023/08/21 09:15:54;;;;;;;10.68;8.05;;;;;;;41.25;28.51;100371.03;4481170;32;33406;-79
2023/08/21 09:18:22;;;;;;;;;;;;;;;41.63;27.89;100372.72;4482814;32;33675;-79
2023/08/21 09:20:49;;;;;;;9.75;7.80;;;;;;;41.91;27.56;100370.56;4464983;32;33157;-79
2023/08/21 09:23:18;;;;;;;10.23;8.43;;;;;;;41.95;27.43;100369.34;4482625;32;34766;-80
2023/08/21 09:25:47;;;;;;;9.35;7.80;;;;;;;42.12;26.75;100367.22;4483287;32;34769;-79
2023/08/21 09:28:23;;;;;;;8.60;7.65;;;;;;;42.18;27.04;100361.28;4483467;32;33193;-79
2023/08/21 09:30:52;;;;;;;8.98;7.75;;;;;;;42.25;27.16;100362.53;4482876;32;34280;-79
2023/08/21 09:33:21;;;;;;;10.15;8.20;;;;;;;42.15;26.95;100356.06;4472682;32;33916;-78
2023/08/21 09:35:53;;;;;;;10.50;7.93;;;;;;;42.12;25.84;100362.63;4477859;32;33610;-81
2023/08/21 09:38:21;;;;;;;10.48;7.70;;;;;;;42.09;25.74;100356.56;4483033;32;33725;-79
2023/08/21 09:40:51;;;;;;;10.15;7.43;;;;;;;42.31;26.07;100353.88;4480493;31;33468;-79
2023/08/21 09:43:20;;;;;;;10.40;8.45;;;;;;;42.18;26.46;100351.25;4476102;32;33882;-79
2023/08/21 09:45:50;;;;;;;8.82;7.70;;;;;;;42.32;26.30;100347.41;4474341;32;33551;-79
2023/08/21 09:48:18;;;;;;;9.10;7.70;;;;;;;42.59;25.98;100348.94;4478663;32;33904;-79
2023/08/21 09:50:46;;;;;;;9.98;8.10;;;;;;;42.15;26.97;100340.62;4467842;32;34099;-79
2023/08/21 09:53:14;;;;;;;9.82;7.37;;;;;;;42.10;27.35;100347.41;4465292;32;33360;-79
2023/08/21 09:56:03;;;;;;;11.38;8.05;;;;;;;42.36;26.74;100343.50;4476041;32;34625;-79
2023/08/21 09:58:30;;;;;;;9.73;8.05;;;;;;;43.01;26.01;100341.00;4441671;32;788693;-79
2023/08/21 10:00:59;;;;;;;11.07;7.68;;;;;;;42.72;26.03;100341.50;4466896;32;33332;-79
2023/08/21 10:03:28;;;;;;;9.18;7.85;;;;;;;42.77;26.81;100343.84;4467091;32;33510;-79
2023/08/21 10:05:58;;;;;;;10.63;7.62;;;;;;;43.06;25.46;100336.03;4467865;32;33630;-79
2023/08/21 10:08:26;;;;;;;10.05;8.05;;;;;;;43.45;24.87;100325.50;4468680;32;33895;-79
2023/08/21 10:10:54;;;;;;;8.52;7.65;;;;;;;43.09;25.33;100322.13;4465161;32;31996;-79
2023/08/21 10:13:22;;;;;;;9.48;7.87;;;;;;;43.04;25.30;100324.41;4465358;32;34539;-79
2023/08/21 10:15:49;;;;;;;9.00;7.60;;;;;;;43.05;25.20;100323.38;4450645;32;34060;-79
2023/08/21 10:18:18;;;;;;;9.95;7.50;;;;;;;43.23;25.40;100320.09;4465899;32;34302;-79
2023/08/21 10:20:46;;;;;;;8.10;7.20;;;;;;;43.16;25.58;100317.91;4467777;32;32844;-79
2023/08/21 10:23:30;;;;;;;8.73;7.28;;;;;;;43.69;25.13;100316.25;4467597;32;34681;-79
2023/08/21 10:26:00;;;;;;;9.85;7.43;;;;;;;43.52;24.50;100309.47;4468858;32;33945;-79
2023/08/21 10:28:48;;;;;;;8.88;7.72;;;;;;;43.52;25.25;100317.66;4468109;32;33696;-78
2023/08/21 10:31:35;;;;;;;8.38;7.45;;;;;;;42.92;23.89;100309.06;4467492;32;33535;-79
2023/08/21 10:34:03;;;;;;;;;;;;;;;43.49;24.48;100310.59;4467376;32;33945;-82
2023/08/21 10:36:40;;;;;;;8.80;7.40;;;;;;;43.74;24.08;100319.44;4465805;32;33547;-79
2023/08/21 10:39:20;;;;;;;8.90;7.55;;;;;;;43.39;24.10;100315.13;4468305;32;34509;-79
2023/08/21 10:41:57;;;;;;;;;;;;;;;43.40;24.45;100311.37;4466859;32;32899;-80
2023/08/21 10:44:42;;;;;;;;;;;;;;;43.79;23.69;100308.97;4469505;32;34298;-80
2023/08/21 10:47:17;;;;;;;;;;;;;;;44.13;23.45;100306.91;4467084;32;34380;-80
2023/08/21 10:49:50;;;;;;;8.23;7.43;;;;;;;44.47;23.01;100305.75;4465234;32;33687;-79
2023/08/21 10:52:27;;;;;;;9.00;7.57;;;;;;;43.95;22.94;100301.19;4465856;32;33347;-78
2023/08/21 10:54:59;;;;;;;8.23;7.43;;;;;;;44.14;23.72;100305.03;4468469;32;33950;-79
2023/08/21 10:57:27;;;;;;;;;;;;;;;43.99;23.49;100301.78;4466351;32;33961;-78
2023/08/21 11:00:08;;;;;;;;;;;;;;;44.35;23.86;100305.88;4466465;32;34648;-78
2023/08/21 11:02:40;;;;;;;8.20;7.35;;;;;;;43.96;23.65;100297.44;4464273;32;33200;-79
2023/08/21 11:05:09;;;;;;;8.50;7.67;;;;;;;43.44;24.36;100299.22;4468885;32;33474;-78
2023/08/21 11:07:39;;;;;;;;;;;;;;;43.28;25.04;100301.50;4468692;32;34540;-79
2023/08/21 11:10:08;;;;;;;7.93;7.12;;;;;;;43.49;23.45;100299.69;4463472;32;34953;-80
2023/08/21 11:12:49;;;;;;;8.38;7.40;;;;;;;43.37;24.35;100295.31;4467130;32;32819;-79
2023/08/21 11:15:17;;;;;;;10.67;7.43;;;;;;;42.95;24.91;100297.91;4465220;32;33803;-79
2023/08/21 11:17:59;;;;;;;10.32;7.65;;;;;;;42.73;25.13;100293.31;4464159;32;34711;-79
2023/08/21 11:20:27;;;;;;;;;;;;;;;43.20;24.42;100294.84;4463412;32;33234;-78
2023/08/21 11:22:58;;;;;;;;;;;;;;;43.56;23.86;100290.00;4464695;32;34152;-79
2023/08/21 11:25:26;;;;;;;;;;;;;;;43.41;24.54;100285.88;4465102;32;34136;-79
2023/08/21 11:27:54;;;;;;;6.87;5.87;;;;;;;44.03;23.27;100291.47;4457316;32;34222;-79
2023/08/21 11:30:23;;;;;;;7.65;6.50;;;;;;;43.46;23.38;100286.31;4468816;32;33513;-77
2023/08/21 11:33:13;;;;;;;7.68;6.87;;;;;;;42.65;24.08;100283.06;4468903;32;33214;-77
2023/08/21 11:35:41;;;;;;;9.07;7.07;;;;;;;43.00;24.01;100282.91;4467307;32;34106;-78
2023/08/21 11:38:19;;;;;;;9.40;7.18;;;;;;;42.59;24.29;100283.56;4466438;32;35471;-78
2023/08/21 11:41:00;;;;;;;7.65;6.90;;;;;;;42.77;24.45;100282.06;4465594;32;33697;-79
2023/08/21 11:43:34;;;;;;;;;;;;;;;43.25;23.78;100280.81;4467779;32;34258;-79
2023/08/21 11:46:02;;;;;;;;;;;;;;;43.86;22.86;100269.25;4463158;32;33680;-78
2023/08/21 11:48:30;;;;;;;;;;;;;;;43.58;22.79;100277.09;4463156;32;34971;-79
2023/08/21 11:50:57;;;;;;;;;;;;;;;43.23;23.13;100273.75;4458700;32;34055;-78
2023/08/21 11:53:32;;;;;;;;;;;;;;;42.84;23.90;100276.09;4463891;32;34078;-78
2023/08/21 11:56:00;;;;;;;;;;;;;;;43.02;23.38;100277.31;4466757;32;34115;-79
2023/08/21 11:58:30;;;;;;;;;;;;;;;43.52;23.08;100274.91;4456806;32;33731;-79
2023/08/21 12:01:04;;;;;;;;;;;;;;;42.91;23.93;100271.91;4466432;32;32671;-79
2023/08/21 12:03:35;;;;;;;;;;;;;;;42.84;23.46;100265.19;4465823;32;32918;-78
2023/08/21 12:06:06;;;;;;;;;;;;;;;43.03;23.38;100265.41;4465187;32;34340;-78
2023/08/21 12:08:34;;;;;;;;;;;;;;;43.50;23.50;100274.13;4464665;32;32565;-78
2023/08/21 12:11:02;;;;;;;;;;;;;;;43.35;24.11;100267.31;4468024;32;34636;-78
2023/08/21 12:13:29;;;;;;;;;;;;;;;43.07;23.58;100266.03;4468600;32;33530;-78
2023/08/21 12:16:00;;;;;;;;;;;;;;;43.07;23.53;100266.88;4467357;32;34872;-79
2023/08/21 12:18:27;;;;;;;;;;;;;;;43.37;23.33;100259.84;4468492;32;34942;-79